createdAt,value
2022-08-01T00:00:08.722Z,68.95
2022-08-01T00:02:39.929Z,69.03
2022-08-01T00:05:08.309Z,68.96
2022-08-01T00:07:35.258Z,69.21
2022-08-01T00:10:05.172Z,69.12
2022-08-01T00:12:31.720Z,69.17
2022-08-01T00:14:57.878Z,69.08
2022-08-01T00:17:24.203Z,69.11
2022-08-01T00:19:50.375Z,69.11
2022-08-01T00:22:16.727Z,69.14
2022-08-01T00:24:42.877Z,69.08
2022-08-01T00:27:09.117Z,69.31
2022-08-01T00:30:04.744Z,69.20
2022-08-01T00:32:21.784Z,69.39
2022-08-01T00:34:48.051Z,69.38
2022-08-01T00:37:16.235Z,69.51
2022-08-01T00:39:42.910Z,69.53
2022-08-01T00:42:11.288Z,69.33
2022-08-01T00:44:38.223Z,69.42
2022-08-01T00:47:05.070Z,69.51
2022-08-01T00:49:31.723Z,69.45
2022-08-01T00:52:01.434Z,69.57
2022-08-01T00:54:27.872Z,69.68
2022-08-01T00:56:55.381Z,69.81
2022-08-01T00:59:22.967Z,69.75
2022-08-01T01:01:50.187Z,69.62
2022-08-01T01:04:17.279Z,69.65
2022-08-01T01:07:02.485Z,69.61
2022-08-01T01:09:59.055Z,69.72
2022-08-01T01:12:35.892Z,69.81
2022-08-01T01:15:12.133Z,69.96
2022-08-01T01:17:50.504Z,70.07
2022-08-01T01:20:20.250Z,70.09
2022-08-01T01:23:05.094Z,70.27
2022-08-01T01:25:37.450Z,70.26
2022-08-01T01:28:06.428Z,70.29
2022-08-01T01:30:36.044Z,70.51
2022-08-01T01:33:06.181Z,70.60
2022-08-01T01:35:36.222Z,70.75
2022-08-01T01:38:08.231Z,70.84
2022-08-01T01:40:35.400Z,70.91
2022-08-01T01:43:01.576Z,71.00
2022-08-01T01:45:28.812Z,71.09
2022-08-01T01:47:56.589Z,71.13
2022-08-01T01:50:24.130Z,71.16
2022-08-01T01:52:51.303Z,71.26
2022-08-01T01:55:20.052Z,71.27
2022-08-01T01:57:47.148Z,71.41
2022-08-01T02:00:14.852Z,71.42
2022-08-01T02:02:42.827Z,71.31
2022-08-01T02:05:11.791Z,71.49
2022-08-01T02:07:39.781Z,71.29
2022-08-01T02:10:07.479Z,71.59
2022-08-01T02:12:36.847Z,71.42
2022-08-01T02:15:05.230Z,71.48
2022-08-01T02:17:32.603Z,71.41
2022-08-01T02:19:59.265Z,71.50
2022-08-01T02:22:32.856Z,71.61
2022-08-01T02:25:24.173Z,71.36
2022-08-01T02:28:17.978Z,71.58
2022-08-01T02:30:47.745Z,71.67
2022-08-01T02:33:24.005Z,71.71
2022-08-01T02:36:29.729Z,71.76
2022-08-01T02:38:47.313Z,71.29
2022-08-01T02:41:19.532Z,71.57
2022-08-01T02:43:53.344Z,71.68
2022-08-01T02:46:38.904Z,71.72
2022-08-01T02:49:09.580Z,71.83
2022-08-01T02:51:37.681Z,71.89
2022-08-01T02:54:07.225Z,71.74
2022-08-01T02:56:35.347Z,71.90
2022-08-01T02:59:14.804Z,71.80
2022-08-01T03:01:45.356Z,71.91
2022-08-01T03:04:13.042Z,72.04
2022-08-01T03:06:41.318Z,72.09
2022-08-01T03:09:12.107Z,71.96
2022-08-01T03:11:41.921Z,72.05
2022-08-01T03:14:10.414Z,72.04
2022-08-01T03:16:39.756Z,72.11
2022-08-01T03:19:08.886Z,72.09
2022-08-01T03:21:35.829Z,72.14
2022-08-01T03:24:04.682Z,72.15
2022-08-01T03:26:34.172Z,72.14
2022-08-01T03:29:06.832Z,72.11
2022-08-01T03:31:36.461Z,72.20
2022-08-01T03:34:05.855Z,72.25
2022-08-01T03:36:34.988Z,72.22
2022-08-01T03:39:04.015Z,72.29
2022-08-01T03:41:37.963Z,72.32
2022-08-01T03:44:20.832Z,72.25
2022-08-01T03:46:50.497Z,72.32
2022-08-01T03:49:23.415Z,72.30
2022-08-01T03:51:51.248Z,72.36
2022-08-01T03:54:22.371Z,72.37
2022-08-01T03:56:50.217Z,72.35
2022-08-01T03:59:18.114Z,72.25
2022-08-01T04:01:46.393Z,72.13
2022-08-01T04:04:13.870Z,72.29
2022-08-01T04:06:40.976Z,72.29
2022-08-01T04:09:13.083Z,72.19
2022-08-01T04:11:41.182Z,72.33
2022-08-01T04:14:08.609Z,72.31
2022-08-01T04:16:35.961Z,72.37
2022-08-01T04:19:02.390Z,72.41
2022-08-01T04:21:32.850Z,72.13
2022-08-01T04:24:05.228Z,72.17
2022-08-01T04:26:35.084Z,72.37
2022-08-01T04:29:05.241Z,72.05
2022-08-01T04:31:33.112Z,72.16
2022-08-01T04:34:02.117Z,72.02
2022-08-01T04:36:30.265Z,72.15
2022-08-01T04:39:00.349Z,72.22
2022-08-01T04:41:27.056Z,72.32
2022-08-01T04:43:55.128Z,72.44
2022-08-01T04:46:22.666Z,72.54
2022-08-01T04:48:49.971Z,72.59
2022-08-01T04:51:17.829Z,72.56
2022-08-01T04:53:46.104Z,72.63
2022-08-01T04:56:13.472Z,72.64
2022-08-01T04:58:41.401Z,72.70
2022-08-01T05:01:08.521Z,72.30
2022-08-01T05:03:38.689Z,72.09
2022-08-01T05:06:05.529Z,72.35
2022-08-01T05:08:31.785Z,72.43
2022-08-01T05:10:58.032Z,72.43
2022-08-01T05:13:24.170Z,72.58
2022-08-01T05:15:50.732Z,72.70
2022-08-01T05:18:16.885Z,72.77
2022-08-01T05:20:52.568Z,72.85
2022-08-01T05:23:23.238Z,72.96
2022-08-01T05:26:05.268Z,72.78
2022-08-01T05:28:32.110Z,72.67
2022-08-01T05:30:58.335Z,72.51
2022-08-01T05:33:24.499Z,72.48
2022-08-01T05:35:50.953Z,72.59
2022-08-01T05:38:17.136Z,72.86
2022-08-01T05:40:43.382Z,72.96
2022-08-01T05:43:09.551Z,72.91
2022-08-01T05:45:35.929Z,72.83
2022-08-01T05:48:02.080Z,72.83
2022-08-01T05:50:28.316Z,72.61
2022-08-01T05:52:54.446Z,72.52
2022-08-01T05:55:20.786Z,72.45
2022-08-01T05:57:47.001Z,72.58
2022-08-01T06:00:14.909Z,72.44
2022-08-01T06:02:45.485Z,72.64
2022-08-01T06:05:13.520Z,73.05
2022-08-01T06:07:40.503Z,72.48
2022-08-01T06:10:07.965Z,72.48
2022-08-01T06:12:35.757Z,72.38
2022-08-01T06:15:06.275Z,72.31
2022-08-01T06:17:32.639Z,72.56
2022-08-01T06:19:59.685Z,72.54
2022-08-01T06:22:26.071Z,72.61
2022-08-01T06:24:52.516Z,72.56
2022-08-01T06:27:21.777Z,72.80
2022-08-01T06:29:51.401Z,72.79
2022-08-01T06:32:26.348Z,72.83
2022-08-01T06:34:55.190Z,72.61
2022-08-01T06:37:21.848Z,72.51
2022-08-01T06:39:49.652Z,72.69
2022-08-01T06:42:15.959Z,72.81
2022-08-01T06:44:42.281Z,72.81
2022-08-01T06:47:08.472Z,72.87
2022-08-01T06:49:34.781Z,72.65
2022-08-01T06:52:00.968Z,72.77
2022-08-01T06:54:27.226Z,72.46
2022-08-01T06:56:53.353Z,72.61
2022-08-01T06:59:19.535Z,72.85
2022-08-01T07:01:45.856Z,72.69
2022-08-01T07:04:12.273Z,72.67
2022-08-01T07:06:38.461Z,72.80
2022-08-01T07:09:10.842Z,72.85
2022-08-01T07:11:40.026Z,72.62
2022-08-01T07:14:06.572Z,73.16
2022-08-01T07:16:32.789Z,72.48
2022-08-01T07:18:58.999Z,72.46
2022-08-01T07:21:40.708Z,72.70
2022-08-01T07:24:13.152Z,73.77
2022-08-01T07:26:53.805Z,73.97
2022-08-01T07:29:24.975Z,73.70
2022-08-01T07:31:55.958Z,73.81
2022-08-01T07:34:23.121Z,73.70
2022-08-01T07:36:50.013Z,74.56
2022-08-01T07:39:16.416Z,74.41
2022-08-01T07:41:52.898Z,74.25
2022-08-01T07:44:29.339Z,74.25
2022-08-01T07:46:55.777Z,74.09
2022-08-01T07:49:22.298Z,73.69
2022-08-01T07:52:13.518Z,73.50
2022-08-01T07:54:35.602Z,74.12
2022-08-01T07:57:03.090Z,74.01
2022-08-01T07:59:29.400Z,74.28
2022-08-01T08:01:55.700Z,74.68
2022-08-01T08:04:22.305Z,74.61
2022-08-01T08:06:49.415Z,74.27
2022-08-01T08:09:16.388Z,74.08
2022-08-01T08:11:47.381Z,74.32
2022-08-01T08:14:14.422Z,74.05
2022-08-01T08:16:40.566Z,74.41
2022-08-01T08:19:06.792Z,74.10
2022-08-01T08:21:33.013Z,74.02
2022-08-01T08:24:17.889Z,73.88
2022-08-01T08:26:44.131Z,73.63
2022-08-01T08:29:10.381Z,73.69
2022-08-01T08:31:52.008Z,73.54
2022-08-01T08:34:19.864Z,73.45
2022-08-01T08:36:47.703Z,73.41
2022-08-01T08:39:14.737Z,73.45
2022-08-01T08:41:41.001Z,73.38
2022-08-01T08:44:10.348Z,73.24
2022-08-01T08:47:05.620Z,73.19
2022-08-01T08:49:35.489Z,73.05
2022-08-01T08:52:04.626Z,73.32
2022-08-01T08:54:32.767Z,73.40
2022-08-01T08:57:00.683Z,73.29
2022-08-01T08:59:28.454Z,73.29
2022-08-01T09:01:55.909Z,73.32
2022-08-01T09:04:26.061Z,73.26
2022-08-01T09:06:54.293Z,73.04
2022-08-01T09:09:20.433Z,73.00
2022-08-01T09:11:57.458Z,72.97
2022-08-01T09:14:30.190Z,72.97
2022-08-01T09:17:08.040Z,73.08
2022-08-01T09:19:47.931Z,73.03
2022-08-01T09:22:21.562Z,73.06
2022-08-01T09:25:06.036Z,73.29
2022-08-01T09:27:33.105Z,74.13
2022-08-01T09:30:17.193Z,74.02
2022-08-01T09:33:06.322Z,73.99
2022-08-01T09:35:43.154Z,73.59
2022-08-01T09:38:17.294Z,73.68
2022-08-01T09:40:58.015Z,73.89
2022-08-01T09:43:27.577Z,73.69
2022-08-01T09:45:55.216Z,73.98
2022-08-01T09:48:28.826Z,73.48
2022-08-01T09:51:04.837Z,73.44
2022-08-01T09:53:52.111Z,73.88
2022-08-01T09:56:21.031Z,73.60
2022-08-01T09:59:01.614Z,73.67
2022-08-01T10:01:49.638Z,73.65
2022-08-01T10:04:21.337Z,73.56
2022-08-01T10:06:55.578Z,73.53
2022-08-01T10:09:36.027Z,73.42
2022-08-01T10:12:07.503Z,73.35
2022-08-01T10:14:37.963Z,73.17
2022-08-01T10:17:07.325Z,73.00
2022-08-01T10:19:36.072Z,72.86
2022-08-01T10:22:07.848Z,72.65
2022-08-01T10:24:40.903Z,72.51
2022-08-01T10:27:12.780Z,72.37
2022-08-01T10:30:05.140Z,72.45
2022-08-01T10:32:35.433Z,71.96
2022-08-01T10:35:06.847Z,72.16
2022-08-01T10:37:52.418Z,72.19
2022-08-01T10:40:30.339Z,72.05
2022-08-01T10:42:57.505Z,72.07
2022-08-01T10:45:26.818Z,71.84
2022-08-01T10:48:11.376Z,71.73
2022-08-01T10:50:42.112Z,71.90
2022-08-01T10:53:23.795Z,71.79
2022-08-01T10:55:57.452Z,71.74
2022-08-01T10:58:29.613Z,71.61
2022-08-01T11:01:27.226Z,71.61
2022-08-01T11:04:12.564Z,71.50
2022-08-01T11:06:43.930Z,71.38
2022-08-01T11:09:25.181Z,71.47
2022-08-01T11:12:13.529Z,71.54
2022-08-01T11:14:59.562Z,71.54
2022-08-01T11:17:37.572Z,64.63
2022-08-01T11:20:05.974Z,66.50
2022-08-01T11:23:11.078Z,68.56
2022-08-01T11:26:06.672Z,69.42
2022-08-01T11:28:32.878Z,69.81
2022-08-01T11:31:11.207Z,70.26
2022-08-01T11:33:45.760Z,70.29
2022-08-01T11:36:16.275Z,70.24
2022-08-01T11:38:45.037Z,70.48
2022-08-01T11:41:11.329Z,70.61
2022-08-01T11:44:04.923Z,70.74
2022-08-01T11:47:09.507Z,70.72
2022-08-01T11:49:44.623Z,71.35
2022-08-01T11:52:30.679Z,71.18
2022-08-01T11:55:05.183Z,70.55
2022-08-01T11:57:37.634Z,70.75
2022-08-01T12:00:09.014Z,70.84
2022-08-01T12:02:41.698Z,70.15
2022-08-01T12:05:14.560Z,70.28
2022-08-01T12:07:42.499Z,70.17
2022-08-01T12:10:14.702Z,70.01
2022-08-01T12:12:50.302Z,70.22
2022-08-01T12:15:18.442Z,70.19
2022-08-01T12:17:59.823Z,70.10
2022-08-01T12:20:31.057Z,69.95
2022-08-01T12:23:00.611Z,70.07
2022-08-01T12:25:26.854Z,69.32
2022-08-01T12:27:56.290Z,69.03
2022-08-01T12:30:25.510Z,69.57
2022-08-01T12:32:54.050Z,64.08
2022-08-01T12:35:23.488Z,66.83
2022-08-01T12:37:51.635Z,66.32
2022-08-01T12:40:20.254Z,67.11
2022-08-01T12:42:49.760Z,68.07
2022-08-01T12:45:19.965Z,67.23
2022-08-01T12:47:47.730Z,66.61
2022-08-01T12:50:16.754Z,66.48
2022-08-01T12:52:43.852Z,66.43
2022-08-01T12:55:13.533Z,66.81
2022-08-01T12:57:42.285Z,67.35
2022-08-01T13:00:24.324Z,66.22
2022-08-01T13:03:09.507Z,68.33
2022-08-01T13:05:42.353Z,68.15
2022-08-01T13:08:33.111Z,68.04
2022-08-01T13:11:02.492Z,67.32
2022-08-01T13:13:42.581Z,67.25
2022-08-01T13:16:12.493Z,67.27
2022-08-01T13:18:50.198Z,67.84
2022-08-01T13:21:19.330Z,67.81
2022-08-01T13:24:12.610Z,68.42
2022-08-01T13:26:50.911Z,66.81
2022-08-01T13:29:19.171Z,65.41
2022-08-01T13:31:45.616Z,65.47
2022-08-01T13:34:12.845Z,66.11
2022-08-01T13:36:43.053Z,66.40
2022-08-01T13:39:31.970Z,65.69
2022-08-01T13:41:58.480Z,66.45
2022-08-01T13:44:24.641Z,65.71
2022-08-01T13:46:51.431Z,66.19
2022-08-01T13:49:19.020Z,65.56
2022-08-01T13:51:46.701Z,67.39
2022-08-01T13:54:12.911Z,66.61
2022-08-01T13:56:39.293Z,66.60
2022-08-01T13:59:06.807Z,64.59
2022-08-01T14:01:34.617Z,66.33
2022-08-01T14:04:01.780Z,65.67
2022-08-01T14:06:28.172Z,66.48
2022-08-01T14:08:54.458Z,66.49
2022-08-01T14:11:21.386Z,66.71
2022-08-01T14:13:47.765Z,65.82
2022-08-01T14:16:14.322Z,64.60
2022-08-01T14:18:41.771Z,65.23
2022-08-01T14:21:11.025Z,64.63
2022-08-01T14:23:37.294Z,65.83
2022-08-01T14:26:08.417Z,65.81
2022-08-01T14:28:39.241Z,66.81
2022-08-01T14:31:06.737Z,65.49
2022-08-01T14:33:34.442Z,66.16
2022-08-01T14:36:05.826Z,65.98
2022-08-01T14:38:47.466Z,65.44
2022-08-01T14:41:15.143Z,66.03
2022-08-01T14:43:41.355Z,67.97
2022-08-01T14:46:10.112Z,67.19
2022-08-01T14:48:36.410Z,56.48
2022-08-01T14:51:03.028Z,60.64
2022-08-01T14:53:29.400Z,63.86
2022-08-01T14:55:55.780Z,62.98
2022-08-01T14:58:24.168Z,62.75
2022-08-01T15:00:58.511Z,62.95
2022-08-01T15:03:25.517Z,64.72
2022-08-01T15:05:51.657Z,63.09
2022-08-01T15:08:18.032Z,61.92
2022-08-01T15:10:44.223Z,58.37
2022-08-01T15:13:10.542Z,62.02
2022-08-01T15:15:36.783Z,62.99
2022-08-01T15:18:03.062Z,63.33
2022-08-01T15:20:30.377Z,62.78
2022-08-01T15:22:56.889Z,62.41
2022-08-01T15:25:23.034Z,62.97
2022-08-01T15:27:49.272Z,62.25
2022-08-01T15:30:15.752Z,62.34
2022-08-01T15:32:42.166Z,62.46
2022-08-01T15:35:10.405Z,63.13
2022-08-01T15:37:42.292Z,62.76
2022-08-01T15:40:10.431Z,62.83
2022-08-01T15:42:36.566Z,62.53
2022-08-01T15:45:04.288Z,63.11
2022-08-01T15:47:31.212Z,62.36
2022-08-01T15:49:59.849Z,62.89
2022-08-01T15:52:31.478Z,62.92
2022-08-01T15:54:58.441Z,62.62
2022-08-01T15:57:24.618Z,61.38
2022-08-01T15:59:50.844Z,63.71
2022-08-01T16:02:17.270Z,62.19
2022-08-01T16:04:43.608Z,61.41
2022-08-01T16:07:10.568Z,61.69
2022-08-01T16:09:36.856Z,61.54
2022-08-01T16:12:03.478Z,62.34
2022-08-01T16:14:29.905Z,63.56
2022-08-01T16:16:56.050Z,63.05
2022-08-01T16:19:23.548Z,62.66
2022-08-01T16:21:51.135Z,62.69
2022-08-01T16:24:17.357Z,63.01
2022-08-01T16:26:43.596Z,62.05
2022-08-01T16:29:10.032Z,62.82
2022-08-01T16:31:50.061Z,63.48
2022-08-01T16:34:23.535Z,63.64
2022-08-01T16:36:52.002Z,63.21
2022-08-01T16:39:23.107Z,60.47
2022-08-01T16:41:50.209Z,59.05
2022-08-01T16:44:33.548Z,58.11
2022-08-01T16:47:04.128Z,57.45
2022-08-01T16:49:33.746Z,59.66
2022-08-01T16:52:00.161Z,59.71
2022-08-01T16:54:27.229Z,57.90
2022-08-01T16:56:54.728Z,60.76
2022-08-01T16:59:22.588Z,60.31
2022-08-01T17:01:59.536Z,61.84
2022-08-01T17:04:29.735Z,61.70
2022-08-01T17:06:56.377Z,60.12
2022-08-01T17:09:22.677Z,60.17
2022-08-01T17:11:49.167Z,59.70
2022-08-01T17:14:15.760Z,59.68
2022-08-01T17:16:42.198Z,58.02
2022-08-01T17:19:08.682Z,58.52
2022-08-01T17:21:39.764Z,60.25
2022-08-01T17:24:07.869Z,60.72
2022-08-01T17:26:34.213Z,58.38
2022-08-01T17:29:00.752Z,59.31
2022-08-01T17:31:26.917Z,59.15
2022-08-01T17:33:55.177Z,59.12
2022-08-01T17:36:22.128Z,59.30
2022-08-01T17:38:48.488Z,59.71
2022-08-01T17:41:14.897Z,60.15
2022-08-01T17:43:41.336Z,61.57
2022-08-01T17:46:07.712Z,62.24
2022-08-01T17:48:33.892Z,62.37
2022-08-01T17:51:00.026Z,62.53
2022-08-01T17:53:26.408Z,63.18
2022-08-01T17:55:56.714Z,63.27
2022-08-01T17:58:48.775Z,62.65
2022-08-01T18:01:12.435Z,61.95
2022-08-01T18:03:41.390Z,63.13
2022-08-01T18:06:09.185Z,63.18
2022-08-01T18:08:35.496Z,63.41
2022-08-01T18:11:02.491Z,63.00
2022-08-01T18:13:29.506Z,63.34
2022-08-01T18:15:56.854Z,63.41
2022-08-01T18:18:32.806Z,63.39
2022-08-01T18:21:01.502Z,63.62
2022-08-01T18:23:27.696Z,63.19
2022-08-01T18:25:53.923Z,63.49
2022-08-01T18:28:30.724Z,63.58
2022-08-01T18:31:00.323Z,63.86
2022-08-01T18:33:26.604Z,63.62
2022-08-01T18:35:54.016Z,63.59
2022-08-01T18:38:20.413Z,63.64
2022-08-01T18:40:46.666Z,62.88
2022-08-01T18:43:13.029Z,62.87
2022-08-01T18:45:42.774Z,63.80
2022-08-01T18:48:10.738Z,63.07
2022-08-01T18:50:36.944Z,62.70
2022-08-01T18:53:03.188Z,62.68
2022-08-01T18:55:29.597Z,63.72
2022-08-01T18:57:55.864Z,63.66
2022-08-01T19:00:22.300Z,63.70
2022-08-01T19:02:48.500Z,63.68
2022-08-01T19:05:14.710Z,63.65
2022-08-01T19:08:05.970Z,63.41
2022-08-01T19:10:27.285Z,63.28
2022-08-01T19:12:53.676Z,62.78
2022-08-01T19:15:19.859Z,63.39
2022-08-01T19:17:46.635Z,63.13
2022-08-01T19:20:12.910Z,62.90
2022-08-01T19:22:39.093Z,63.24
2022-08-01T19:25:05.729Z,63.40
2022-08-01T19:27:36.837Z,63.25
2022-08-01T19:30:05.375Z,63.73
2022-08-01T19:32:34.043Z,63.89
2022-08-01T19:35:10.541Z,63.95
2022-08-01T19:37:45.214Z,64.15
2022-08-01T19:40:27.208Z,64.35
2022-08-01T19:42:56.094Z,64.56
2022-08-01T19:45:22.662Z,64.90
2022-08-01T19:47:56.216Z,65.28
2022-08-01T19:50:27.277Z,65.40
2022-08-01T19:52:56.586Z,65.59
2022-08-01T19:55:28.261Z,66.49
2022-08-01T19:58:26.362Z,66.67
2022-08-01T20:00:42.887Z,66.59
2022-08-01T20:03:09.729Z,66.95
2022-08-01T20:05:38.030Z,67.36
2022-08-01T20:08:06.706Z,67.65
2022-08-01T20:10:35.034Z,68.02
2022-08-01T20:13:02.081Z,68.44
2022-08-01T20:15:28.779Z,68.63
2022-08-01T20:17:57.893Z,68.75
2022-08-01T20:20:24.969Z,68.84
2022-08-01T20:22:55.194Z,69.33
2022-08-01T20:25:27.424Z,69.33
2022-08-01T20:27:56.181Z,69.91
2022-08-01T20:30:24.574Z,69.84
2022-08-01T20:32:51.972Z,69.82
2022-08-01T20:35:52.281Z,69.55
2022-08-01T20:38:11.942Z,70.13
2022-08-01T20:40:42.806Z,69.86
2022-08-01T20:43:09.293Z,70.04
2022-08-01T20:45:35.557Z,70.23
2022-08-01T20:48:02.208Z,70.48
2022-08-01T20:50:53.737Z,70.49
2022-08-01T20:53:23.198Z,70.85
2022-08-01T20:55:56.650Z,71.02
2022-08-01T20:58:33.408Z,70.86
2022-08-01T21:01:02.483Z,71.10
2022-08-01T21:03:40.201Z,70.91
2022-08-01T21:06:14.062Z,71.49
2022-08-01T21:08:46.930Z,71.55
2022-08-01T21:11:19.129Z,71.41
2022-08-01T21:13:47.491Z,71.99
2022-08-01T21:16:23.647Z,71.76
2022-08-01T21:19:21.647Z,71.77
2022-08-01T21:21:54.716Z,72.19
2022-08-01T21:24:26.426Z,72.27
2022-08-01T21:26:53.469Z,72.04
2022-08-01T21:29:21.703Z,72.41
2022-08-01T21:32:08.709Z,72.36
2022-08-01T21:34:37.645Z,72.96
2022-08-01T21:37:07.150Z,72.90
2022-08-01T21:39:36.639Z,73.35
2022-08-01T21:42:08.992Z,72.97
2022-08-01T21:44:38.865Z,72.61
2022-08-01T21:47:06.765Z,72.83
2022-08-01T21:49:38.832Z,72.51
2022-08-01T21:52:17.738Z,73.51
2022-08-01T21:55:10.841Z,73.11
2022-08-01T21:58:12.429Z,73.09
2022-08-01T22:00:43.294Z,73.67
2022-08-01T22:03:22.847Z,74.02
2022-08-01T22:05:51.598Z,74.28
2022-08-01T22:08:32.821Z,73.93
2022-08-01T22:11:03.966Z,73.54
2022-08-01T22:13:30.620Z,73.67
2022-08-01T22:15:57.976Z,74.09
2022-08-01T22:18:27.762Z,74.57
2022-08-01T22:20:55.106Z,74.76
2022-08-01T22:23:25.088Z,73.99
2022-08-01T22:25:53.117Z,73.90
2022-08-01T22:28:20.157Z,74.35
2022-08-01T22:30:49.065Z,73.73
2022-08-01T22:33:17.642Z,74.23
2022-08-01T22:35:50.252Z,73.80
2022-08-01T22:38:18.434Z,74.02
2022-08-01T22:40:49.782Z,74.43
2022-08-01T22:43:25.437Z,74.17
2022-08-01T22:46:08.345Z,74.28
2022-08-01T22:48:50.508Z,74.60
2022-08-01T22:51:31.894Z,74.59
2022-08-01T22:54:09.069Z,74.69
2022-08-01T22:56:38.738Z,75.31
2022-08-01T22:59:13.170Z,75.36
2022-08-01T23:01:42.198Z,75.18
2022-08-01T23:04:33.526Z,75.44
2022-08-01T23:07:05.018Z,75.49
2022-08-01T23:09:39.228Z,75.84
2022-08-01T23:12:21.887Z,75.37
2022-08-01T23:14:52.088Z,75.83
2022-08-01T23:17:27.296Z,75.94
2022-08-01T23:19:59.183Z,76.13
2022-08-01T23:22:29.478Z,75.75
2022-08-01T23:25:04.320Z,75.64
2022-08-01T23:27:52.032Z,75.67
2022-08-01T23:30:28.437Z,76.80
2022-08-01T23:32:55.427Z,76.19
2022-08-01T23:35:21.830Z,75.96
2022-08-01T23:37:50.244Z,76.01
2022-08-01T23:40:17.187Z,76.50
2022-08-01T23:42:43.514Z,76.68
2022-08-01T23:45:10.122Z,76.25
2022-08-01T23:47:36.358Z,76.34
2022-08-01T23:50:03.105Z,76.13
2022-08-01T23:52:32.244Z,76.37
2022-08-01T23:55:14.619Z,75.99
2022-08-01T23:57:41.912Z,76.07
